Time;durP1;ratioP1;P1;durP2;ratioP2;P2;SDS_P1;SDS_P2;PMS_P1;PMS_P2;Temp;Humidity;BMP_temperature;BMP_pressure;BME280_temperature;BME280_humidity;BME280_pressure;Samples;Min_cycle;Max_cycle;Signal;HPM_P1;HPM_P2
2021/05/29 00:05:01;;;;;;;2.40;2.20;;;14.80;81.80;;;;;;10397148;28;20337;-83
2021/05/29 00:10:04;;;;;;;2.33;2.17;;;14.80;82.20;;;;;;10414715;28;20296;-83
2021/05/29 00:15:08;;;;;;;2.30;2.20;;;14.80;81.10;;;;;;10409197;28;20218;-83
2021/05/29 00:20:11;;;;;;;2.00;1.90;;;14.80;80.90;;;;;;10415133;28;20272;-83
2021/05/29 00:25:13;;;;;;;2.90;2.60;;;14.80;80.60;;;;;;10401305;28;20225;-83
2021/05/29 00:30:16;;;;;;;2.17;2.07;;;14.80;82.20;;;;;;10415125;28;20190;-82
2021/05/29 00:35:18;;;;;;;2.73;2.53;;;14.80;81.90;;;;;;10393228;28;20221;-83
2021/05/29 00:40:21;;;;;;;2.53;2.30;;;14.70;81.00;;;;;;10393705;28;20198;-83
2021/05/29 00:45:23;;;;;;;4.83;2.80;;;14.70;81.00;;;;;;10384931;28;20327;-83
2021/05/29 00:50:25;;;;;;;2.67;2.47;;;14.60;83.00;;;;;;10393914;28;20267;-83
2021/05/29 00:55:27;;;;;;;2.27;2.10;;;14.60;81.90;;;;;;10383468;28;20237;-83
2021/05/29 01:00:30;;;;;;;4.20;3.43;;;14.60;82.40;;;;;;10383487;28;20663;-83
2021/05/29 01:05:32;;;;;;;3.07;2.87;;;14.60;81.40;;;;;;10362753;28;20218;-83
2021/05/29 01:10:33;;;;;;;3.63;3.33;;;14.60;81.80;;;;;;10369958;28;20225;-83
2021/05/29 01:15:39;;;;;;;2.10;2.00;;;14.60;81.60;;;;;;10400495;28;20241;-82
2021/05/29 01:20:42;;;;;;;2.27;2.17;;;14.50;82.10;;;;;;10392462;28;20749;-84
2021/05/29 01:25:47;;;;;;;2.40;2.20;;;14.50;81.60;;;;;;10381443;28;20583;-82
2021/05/29 01:30:52;;;;;;;2.83;2.50;;;14.40;82.30;;;;;;10359963;28;20659;-83
2021/05/29 01:35:58;;;;;;;2.10;2.00;;;14.40;82.50;;;;;;10378682;28;20302;-83
2021/05/29 01:41:05;;;;;;;2.03;1.93;;;14.40;82.10;;;;;;10377776;28;20686;-82
2021/05/29 01:46:07;;;;;;;2.17;2.07;;;14.40;83.40;;;;;;10380749;28;20221;-83
2021/05/29 01:51:09;;;;;;;3.83;2.20;;;14.40;82.90;;;;;;10368643;28;20637;-83
2021/05/29 01:56:13;;;;;;;2.70;2.50;;;14.40;84.10;;;;;;10386234;28;20219;-83
2021/05/29 02:01:16;;;;;;;2.23;2.13;;;14.40;82.40;;;;;;10390688;28;20210;-82
2021/05/29 02:06:29;;;;;;;2.87;2.67;;;14.30;81.90;;;;;;10373813;28;20261;-82
2021/05/29 02:11:39;;;;;;;2.67;2.57;;;14.30;82.60;;;;;;10385014;28;20276;-82
2021/05/29 02:16:44;;;;;;;2.23;2.13;;;14.30;83.60;;;;;;10382825;28;20612;-82
2021/05/29 02:21:45;;;;;;;2.53;2.43;;;14.30;85.10;;;;;;10367497;28;20289;-82
2021/05/29 02:26:48;;;;;;;3.00;2.83;;;14.30;84.10;;;;;;10410153;28;20233;-82
2021/05/29 02:31:49;;;;;;;3.50;3.20;;;14.30;83.90;;;;;;10417501;28;20202;-82
2021/05/29 02:36:51;;;;;;;3.27;3.07;;;14.20;85.10;;;;;;10410140;28;20249;-82
2021/05/29 02:41:53;;;;;;;3.47;3.17;;;14.10;85.10;;;;;;10403077;28;20248;-82
2021/05/29 02:46:55;;;;;;;3.33;3.03;;;14.00;87.40;;;;;;10425653;28;20219;-82
2021/05/29 02:51:56;;;;;;;4.60;3.50;;;14.00;85.50;;;;;;10412382;28;20305;-83
2021/05/29 02:56:59;;;;;;;3.53;3.33;;;13.90;86.00;;;;;;10417969;28;20242;-82
2021/05/29 03:02:00;;;;;;;4.87;3.40;;;13.80;86.90;;;;;;10430138;28;20198;-83
2021/05/29 03:07:03;;;;;;;5.20;3.43;;;13.80;88.00;;;;;;10405240;28;20225;-82
2021/05/29 03:12:06;;;;;;;3.10;2.90;;;13.70;87.60;;;;;;10411141;28;20220;-82
2021/05/29 03:17:08;;;;;;;3.47;3.17;;;13.70;88.10;;;;;;10427141;28;20222;-83
2021/05/29 03:22:10;;;;;;;3.37;3.03;;;13.70;88.50;;;;;;10422906;28;20206;-81
2021/05/29 03:27:17;;;;;;;3.50;3.20;;;13.70;87.40;;;;;;10398335;28;20225;-84
2021/05/29 03:32:19;;;;;;;4.10;2.67;;;13.60;87.70;;;;;;10400385;28;20288;-83
2021/05/29 03:37:20;;;;;;;3.60;3.40;;;13.50;89.30;;;;;;10408818;28;20289;-83
2021/05/29 03:42:23;;;;;;;2.80;2.60;;;13.50;89.40;;;;;;10425633;28;20206;-83
2021/05/29 03:47:24;;;;;;;3.57;3.30;;;13.50;87.90;;;;;;10416091;28;20257;-84
2021/05/29 03:52:26;;;;;;;3.57;3.37;;;13.50;88.80;;;;;;10421700;28;20209;-83
2021/05/29 03:57:29;;;;;;;3.30;3.10;;;13.50;88.10;;;;;;10412871;28;20221;-84
2021/05/29 04:02:30;;;;;;;3.63;3.43;;;13.40;89.10;;;;;;10412827;28;20226;-82
2021/05/29 04:07:32;;;;;;;3.87;3.57;;;13.40;89.60;;;;;;10432008;22;20255;-79
2021/05/29 04:12:35;;;;;;;3.20;3.00;;;13.50;89.10;;;;;;10418887;28;20194;-79
2021/05/29 04:17:37;;;;;;;4.30;3.90;;;13.50;88.80;;;;;;10418769;28;20225;-79
2021/05/29 04:22:39;;;;;;;4.60;4.30;;;13.50;90.50;;;;;;10421246;28;20324;-79
2021/05/29 04:27:41;;;;;;;5.23;4.83;;;13.50;90.20;;;;;;10425753;28;20226;-79
2021/05/29 04:32:43;;;;;;;4.90;4.37;;;13.40;90.90;;;;;;10417560;28;20266;-79
2021/05/29 04:37:45;;;;;;;5.20;4.20;;;13.40;91.00;;;;;;10414859;28;20311;-79
2021/05/29 04:42:48;;;;;;;4.27;3.97;;;13.50;91.30;;;;;;10415653;28;20206;-79
2021/05/29 04:47:51;;;;;;;4.60;4.20;;;13.50;91.20;;;;;;10408543;28;20229;-79
2021/05/29 04:52:53;;;;;;;4.60;4.30;;;13.50;91.40;;;;;;10413807;28;20224;-79
2021/05/29 04:57:55;;;;;;;5.50;5.20;;;13.50;91.30;;;;;;10413543;28;20301;-79
2021/05/29 05:02:57;;;;;;;4.20;3.93;;;13.50;91.80;;;;;;10412986;28;20696;-79
2021/05/29 05:07:59;;;;;;;5.13;4.70;;;13.60;91.40;;;;;;10422203;28;20709;-79
2021/05/29 05:13:02;;;;;;;5.30;4.90;;;13.70;91.90;;;;;;10415431;28;20225;-79
2021/05/29 05:18:07;;;;;;;4.93;4.50;;;13.70;91.90;;;;;;10418162;28;20269;-79
2021/05/29 05:23:09;;;;;;;6.30;5.70;;;13.70;92.00;;;;;;10417473;28;20251;-79
2021/05/29 05:28:11;;;;;;;5.37;4.97;;;13.80;91.00;;;;;;10414061;28;20344;-79
2021/05/29 05:33:13;;;;;;;5.80;5.40;;;13.90;90.50;;;;;;10423836;28;20330;-79
2021/05/29 05:38:14;;;;;;;5.67;5.27;;;13.90;90.50;;;;;;10418683;28;20225;-79
2021/05/29 05:43:17;;;;;;;5.37;4.93;;;13.90;91.00;;;;;;10418892;28;20225;-79
2021/05/29 05:48:18;;;;;;;6.40;5.80;;;13.90;91.60;;;;;;10415399;28;20324;-79
2021/05/29 05:53:21;;;;;;;5.00;4.60;;;14.00;90.70;;;;;;10419788;28;20725;-79
2021/05/29 05:58:23;;;;;;;9.67;5.13;;;14.00;91.20;;;;;;10418802;28;20221;-79
2021/05/29 06:03:25;;;;;;;4.80;4.50;;;14.10;90.60;;;;;;10421239;28;20213;-79
2021/05/29 06:08:27;;;;;;;5.30;4.47;;;14.20;90.30;;;;;;10421041;28;20303;-80
2021/05/29 06:17:56;;;;;;;4.80;4.50;;;14.40;89.10;;;;;;10420837;28;20687;-79
2021/05/29 06:19:11;;;;;;;4.40;4.10;;;14.50;90.30;;;;;;10419677;28;20230;-80
2021/05/29 06:24:15;;;;;;;4.80;4.40;;;14.70;89.50;;;;;;10420445;28;20352;-80
2021/05/29 06:29:18;;;;;;;4.30;4.00;;;14.80;90.20;;;;;;10415612;28;20230;-80
2021/05/29 06:34:20;;;;;;;4.60;4.30;;;14.90;89.20;;;;;;10418492;28;20202;-79
2021/05/29 06:39:22;;;;;;;4.70;4.40;;;15.10;87.60;;;;;;10421558;28;20220;-80
2021/05/29 06:44:25;;;;;;;4.60;4.20;;;15.40;86.50;;;;;;10422282;28;20198;-79
2021/05/29 06:49:26;;;;;;;4.23;3.80;;;15.80;85.10;;;;;;10420561;28;20253;-80
2021/05/29 06:54:41;;;;;;;3.33;3.10;;;16.20;85.50;;;;;;10421837;28;20208;-80
2021/05/29 06:59:43;;;;;;;4.13;3.50;;;16.50;80.30;;;;;;10411276;28;20202;-80
2021/05/29 07:04:45;;;;;;;3.60;3.10;;;16.90;76.10;;;;;;10402318;28;20241;-80
2021/05/29 07:09:47;;;;;;;3.10;2.90;;;17.20;78.70;;;;;;10423231;28;20225;-79
2021/05/29 07:14:49;;;;;;;4.07;3.77;;;17.50;76.90;;;;;;10444624;28;20225;-80
2021/05/29 07:19:51;;;;;;;2.80;2.60;;;17.80;74.60;;;;;;10425068;28;20205;-80
2021/05/29 07:24:53;;;;;;;2.60;2.50;;;18.10;73.40;;;;;;10419725;28;20209;-80
2021/05/29 07:29:56;;;;;;;2.80;2.70;;;18.50;73.10;;;;;;10416588;28;20312;-80
2021/05/29 07:34:58;;;;;;;2.43;2.33;;;18.90;67.40;;;;;;10418853;28;20229;-80
2021/05/29 07:40:00;;;;;;;3.00;2.83;;;19.40;69.30;;;;;;10413699;28;20201;-80
2021/05/29 07:45:04;;;;;;;3.70;3.30;;;19.80;65.70;;;;;;10410084;28;20225;-80
2021/05/29 07:50:07;;;;;;;4.07;2.57;;;20.30;63.90;;;;;;10417598;28;20232;-80
2021/05/29 07:55:11;;;;;;;2.80;2.60;;;20.80;62.30;;;;;;10420072;28;20831;-80
2021/05/29 08:00:17;;;;;;;2.93;2.73;;;21.20;61.60;;;;;;10421469;28;20213;-80
2021/05/29 08:05:20;;;;;;;2.60;2.20;;;21.60;59.30;;;;;;10416621;28;20240;-80
2021/05/29 08:10:22;;;;;;;2.40;2.20;;;22.10;59.70;;;;;;10397731;28;20253;-80
2021/05/29 08:15:25;;;;;;;2.00;1.90;;;22.60;57.10;;;;;;10418476;28;20222;-80
2021/05/29 08:20:27;;;;;;;2.20;2.10;;;23.10;54.30;;;;;;10414980;28;20201;-80
2021/05/29 08:25:28;;;;;;;2.27;2.13;;;23.70;53.10;;;;;;10414912;28;20225;-78
2021/05/29 08:30:34;;;;;;;1.70;1.60;;;24.00;53.00;;;;;;10411904;28;20305;-78
2021/05/29 08:35:36;;;;;;;2.60;2.40;;;24.30;51.50;;;;;;10411190;28;20219;-78
2021/05/29 08:40:37;;;;;;;6.90;3.60;;;24.50;50.20;;;;;;10409888;28;20618;-77
2021/05/29 08:51:17;;;;;;;1.77;1.67;;;24.80;50.10;;;;;;10394237;23;20223;-79
2021/05/29 09:07:38;;;;;;;1.73;1.63;;;25.20;49.30;;;;;;10475973;28;20224;-79
2021/05/29 09:12:58;;;;;;;1.80;1.70;;;25.40;46.00;;;;;;10486575;28;20316;-79
2021/05/29 09:25:00;;;;;;;2.03;1.93;;;25.80;45.30;;;;;;10486535;28;20263;-79
2021/05/29 09:30:04;;;;;;;2.03;1.93;;;26.10;44.70;;;;;;10546778;28;20265;-79
2021/05/29 09:35:10;;;;;;;2.30;2.10;;;26.10;44.10;;;;;;10545580;28;20314;-79
2021/05/29 09:40:12;;;;;;;2.20;2.10;;;26.60;43.40;;;;;;10548409;28;20268;-79
2021/05/29 09:45:26;;;;;;;1.90;1.80;;;27.40;41.60;;;;;;10514142;28;20223;-79
2021/05/29 09:50:28;;;;;;;1.97;1.87;;;28.10;43.30;;;;;;10525827;28;20196;-79
2021/05/29 09:55:38;;;;;;;2.07;1.83;;;28.30;42.20;;;;;;10547092;28;20211;-79
2021/05/29 10:00:41;;;;;;;6.80;2.47;;;27.30;44.00;;;;;;10551150;28;20226;-79
2021/05/29 10:05:48;;;;;;;2.30;2.20;;;27.10;43.40;;;;;;10535029;22;20235;-84
2021/05/29 10:11:13;;;;;;;2.07;1.97;;;26.80;43.10;;;;;;10507944;28;20209;-83
2021/05/29 10:16:15;;;;;;;2.07;1.90;;;26.60;44.10;;;;;;10509747;28;20248;-83
2021/05/29 10:21:18;;;;;;;2.10;1.90;;;28.30;42.60;;;;;;10509547;28;20209;-84
2021/05/29 10:26:22;;;;;;;2.10;1.90;;;27.20;43.70;;;;;;10513111;28;20213;-81
2021/05/29 10:31:28;;;;;;;3.57;2.10;;;26.20;44.30;;;;;;10503312;28;20215;-80
2021/05/29 10:36:39;;;;;;;2.20;2.10;;;25.40;45.60;;;;;;10499805;28;20224;-81
2021/05/29 10:41:53;;;;;;;2.10;2.00;;;24.40;46.60;;;;;;10501818;28;20208;-81
2021/05/29 10:47:14;;;;;;;1.80;1.70;;;23.60;47.80;;;;;;10501178;28;20308;-82
2021/05/29 10:52:48;;;;;;;2.17;1.97;;;22.80;46.80;;;;;;10502446;28;20265;-79
2021/05/29 10:57:53;;;;;;;2.83;2.27;;;22.10;47.50;;;;;;10483981;28;20306;-80
2021/05/29 11:03:23;;;;;;;2.60;1.90;;;21.80;47.80;;;;;;10501958;28;20688;-81
2021/05/29 11:08:47;;;;;;;1.97;1.87;;;21.60;47.60;;;;;;10502883;28;20584;-81
2021/05/29 11:14:02;;;;;;;1.60;1.50;;;21.40;47.10;;;;;;10484099;28;20254;-81
2021/05/29 11:19:14;;;;;;;2.17;2.07;;;21.20;49.00;;;;;;10483916;28;20318;-81
2021/05/29 11:24:20;;;;;;;1.80;1.70;;;21.10;48.20;;;;;;10491713;28;20232;-80
2021/05/29 11:29:22;;;;;;;2.17;1.70;;;21.00;47.60;;;;;;10504548;28;20234;-80
2021/05/29 11:34:24;;;;;;;1.80;1.70;;;20.90;47.40;;;;;;10500048;28;20651;-80
2021/05/29 11:39:25;;;;;;;1.93;1.70;;;20.90;48.20;;;;;;10499887;28;20302;-82
2021/05/29 11:44:30;;;;;;;1.70;1.60;;;20.70;44.10;;;;;;10501039;28;20215;-85
2021/05/29 11:49:36;;;;;;;1.60;1.50;;;20.60;45.70;;;;;;10501036;28;20224;-80
2021/05/29 11:54:40;;;;;;;1.20;1.20;;;20.40;45.00;;;;;;10503506;28;20246;-80
2021/05/29 11:59:42;;;;;;;1.80;1.70;;;20.50;45.00;;;;;;10503190;28;20232;-80
2021/05/29 12:04:51;;;;;;;3.43;1.57;;;20.40;44.90;;;;;;10495330;28;20429;-83
2021/05/29 12:09:53;;;;;;;1.50;1.50;;;20.30;43.40;;;;;;10500165;28;20212;-81
2021/05/29 12:14:56;;;;;;;1.30;1.23;;;20.20;44.70;;;;;;10500337;28;20222;-82
2021/05/29 12:19:58;;;;;;;1.67;1.57;;;20.10;44.70;;;;;;10503377;28;20251;-80
2021/05/29 12:25:04;;;;;;;1.50;1.40;;;20.10;45.10;;;;;;10483857;28;20676;-81
2021/05/29 12:30:09;;;;;;;4.40;1.40;;;20.30;43.90;;;;;;10489731;28;20692;-83
2021/05/29 12:35:13;;;;;;;1.03;1.00;;;20.50;44.50;;;;;;10503185;28;20220;-82
2021/05/29 12:40:15;;;;;;;1.77;1.50;;;20.70;43.60;;;;;;10503060;28;20212;-82
2021/05/29 12:45:20;;;;;;;1.23;1.23;;;20.70;44.00;;;;;;10484472;28;20236;-80
2021/05/29 12:50:24;;;;;;;1.50;1.40;;;20.60;44.30;;;;;;10503895;28;20656;-80
2021/05/29 12:55:25;;;;;;;1.50;1.40;;;20.50;45.90;;;;;;10485234;28;20236;-81
2021/05/29 13:00:37;;;;;;;1.60;1.30;;;20.50;46.30;;;;;;10505417;28;20274;-82
2021/05/29 13:11:00;;;;;;;1.60;1.50;;;20.50;46.30;;;;;;10499517;28;20275;-82
2021/05/29 13:16:04;;;;;;;1.37;1.27;;;20.50;46.70;;;;;;10506718;28;20217;-83
2021/05/29 13:21:06;;;;;;;1.50;1.40;;;20.80;43.70;;;;;;10511142;28;20292;-83
2021/05/29 13:26:08;;;;;;;1.40;1.27;;;21.00;46.40;;;;;;10520832;28;20263;-83
2021/05/29 13:31:11;;;;;;;1.40;1.30;;;21.10;44.30;;;;;;10504362;28;20287;-82
2021/05/29 13:36:12;;;;;;;1.50;1.40;;;21.00;45.80;;;;;;10502113;28;20661;-84
2021/05/29 13:41:14;;;;;;;8.27;1.70;;;20.90;44.60;;;;;;10502258;28;20188;-84
2021/05/29 13:46:16;;;;;;;1.40;1.30;;;20.80;43.40;;;;;;10508152;28;20247;-85
2021/05/29 13:51:18;;;;;;;1.40;1.40;;;20.80;44.80;;;;;;10512699;28;20543;-81
2021/05/29 13:56:19;;;;;;;1.20;1.20;;;20.90;44.10;;;;;;10508606;28;20235;-83
2021/05/29 14:01:22;;;;;;;2.00;1.50;;;20.70;43.80;;;;;;10492954;28;20690;-84
2021/05/29 14:06:24;;;;;;;1.40;1.30;;;20.60;43.30;;;;;;10492910;28;20232;-82
2021/05/29 14:11:32;;;;;;;1.37;1.27;;;20.60;44.40;;;;;;10512679;28;20205;-81
2021/05/29 14:16:57;;;;;;;1.23;1.23;;;20.60;43.60;;;;;;10504016;28;20713;-82
2021/05/29 14:22:30;;;;;;;1.73;1.40;;;20.70;45.20;;;;;;10508623;28;20316;-83
2021/05/29 14:28:03;;;;;;;1.50;1.40;;;20.70;43.40;;;;;;10509623;28;20285;-84
2021/05/29 14:33:08;;;;;;;1.60;1.50;;;20.50;46.50;;;;;;10510230;28;20203;-84
2021/05/29 14:38:15;;;;;;;2.10;2.00;;;20.30;45.60;;;;;;10483777;28;20648;-83
2021/05/29 14:43:20;;;;;;;1.60;1.50;;;20.10;46.70;;;;;;10490659;28;20692;-83
2021/05/29 14:48:29;;;;;;;2.40;2.20;;;20.00;45.50;;;;;;10486646;28;20233;-82
2021/05/29 14:53:32;;;;;;;1.50;1.40;;;19.90;46.80;;;;;;10480278;28;20209;-82
2021/05/29 14:58:34;;;;;;;1.30;1.20;;;19.90;45.10;;;;;;10507056;28;20239;-82
2021/05/29 15:03:38;;;;;;;1.70;1.60;;;20.10;44.40;;;;;;10506642;28;20307;-83
2021/05/29 15:08:40;;;;;;;1.40;1.30;;;20.10;44.00;;;;;;10505687;28;20231;-83
2021/05/29 15:13:42;;;;;;;1.37;1.37;;;20.10;44.00;;;;;;10505783;28;20727;-81
2021/05/29 15:18:44;;;;;;;1.70;1.60;;;20.10;43.20;;;;;;10503324;28;20307;-84
2021/05/29 15:23:49;;;;;;;1.60;1.50;;;20.10;44.60;;;;;;10485610;28;20325;-84
2021/05/29 15:28:50;;;;;;;1.93;1.70;;;20.10;45.40;;;;;;10503691;28;20600;-83
2021/05/29 15:33:53;;;;;;;1.30;1.30;;;20.20;46.60;;;;;;10501809;28;20751;-82
2021/05/29 15:38:55;;;;;;;1.70;1.60;;;20.30;47.30;;;;;;10501577;28;20307;-84
2021/05/29 15:43:58;;;;;;;1.60;1.50;;;20.40;46.00;;;;;;10502380;28;20654;-84
2021/05/29 15:49:01;;;;;;;1.50;1.30;;;20.40;45.50;;;;;;10502016;28;20240;-81
2021/05/29 15:54:03;;;;;;;1.13;1.00;;;20.30;45.50;;;;;;10486815;28;20241;-83
2021/05/29 15:59:12;;;;;;;1.30;1.30;;;20.30;45.70;;;;;;10499570;28;20232;-80
2021/05/29 16:04:14;;;;;;;3.20;3.00;;;20.30;46.70;;;;;;10483619;28;20208;-81
2021/05/29 16:09:16;;;;;;;3.20;3.00;;;20.40;45.50;;;;;;10427377;22;20332;-78
2021/05/29 16:14:18;;;;;;;1.60;1.50;;;20.50;45.20;;;;;;10398006;28;20583;-78
2021/05/29 16:19:22;;;;;;;1.40;1.30;;;20.50;45.70;;;;;;10404034;28;20256;-78
2021/05/29 16:24:23;;;;;;;1.73;1.63;;;20.40;45.90;;;;;;10411888;28;20213;-78
2021/05/29 16:29:25;;;;;;;2.23;1.70;;;20.30;47.20;;;;;;10411880;28;20289;-78
2021/05/29 16:34:27;;;;;;;1.80;1.70;;;20.10;47.50;;;;;;10411151;28;20308;-78
2021/05/29 16:39:29;;;;;;;1.67;1.57;;;19.80;48.00;;;;;;10409042;28;20620;-78
2021/05/29 16:44:33;;;;;;;1.50;1.40;;;19.80;47.20;;;;;;10426323;28;20230;-78
2021/05/29 16:49:35;;;;;;;2.30;2.20;;;19.80;48.00;;;;;;10410970;28;20226;-78
2021/05/29 16:54:37;;;;;;;1.87;1.77;;;19.80;48.80;;;;;;10408167;28;20388;-77
2021/05/29 16:59:39;;;;;;;1.83;1.73;;;19.90;47.70;;;;;;10409989;28;20740;-78
2021/05/29 17:04:41;;;;;;;1.80;1.70;;;20.10;46.50;;;;;;10411202;28;20295;-78
2021/05/29 17:09:43;;;;;;;1.63;1.53;;;20.10;47.60;;;;;;10410815;28;20759;-78
2021/05/29 17:14:44;;;;;;;1.70;1.60;;;20.10;47.40;;;;;;10408755;28;20296;-78
2021/05/29 17:19:47;;;;;;;1.50;1.40;;;20.10;48.00;;;;;;10415506;28;20227;-78
2021/05/29 17:24:49;;;;;;;1.97;1.70;;;20.10;47.10;;;;;;10416837;28;20292;-78
2021/05/29 17:29:51;;;;;;;1.33;1.23;;;20.10;48.50;;;;;;10418129;28;20367;-77
2021/05/29 17:34:53;;;;;;;1.70;1.60;;;19.90;47.20;;;;;;10412488;28;20209;-78
2021/05/29 17:39:55;;;;;;;1.83;1.73;;;19.70;47.40;;;;;;10413286;28;20305;-78
2021/05/29 17:44:56;;;;;;;1.60;1.50;;;19.60;48.00;;;;;;10411316;28;20213;-78
2021/05/29 17:49:59;;;;;;;2.90;1.50;;;19.40;47.30;;;;;;10415146;28;20249;-78
2021/05/29 17:55:01;;;;;;;1.50;1.40;;;19.40;47.60;;;;;;10410330;28;20206;-77
2021/05/29 18:00:12;;;;;;;1.80;1.70;;;19.30;48.20;;;;;;10411044;28;20391;-77
2021/05/29 18:05:18;;;;;;;1.77;1.67;;;19.20;49.50;;;;;;10415832;28;20205;-78
2021/05/29 18:10:20;;;;;;;2.63;2.43;;;19.10;48.00;;;;;;10416456;28;20229;-78
2021/05/29 18:15:23;;;;;;;6.87;5.70;;;19.00;49.20;;;;;;10417258;28;20232;-78
2021/05/29 18:20:26;;;;;;;2.03;1.93;;;18.90;49.60;;;;;;10418329;28;20292;-77
2021/05/29 18:25:30;;;;;;;1.97;1.87;;;18.90;49.30;;;;;;10416627;28;20202;-77
2021/05/29 18:30:33;;;;;;;5.77;5.30;;;18.80;48.50;;;;;;10415316;28;20253;-77
2021/05/29 18:35:35;;;;;;;4.00;3.70;;;18.80;49.90;;;;;;10430939;28;20239;-77
2021/05/29 18:40:37;;;;;;;1.63;1.53;;;18.70;50.60;;;;;;10416816;28;20198;-77
2021/05/29 18:45:39;;;;;;;2.03;1.93;;;18.70;50.50;;;;;;10415947;28;20233;-77
2021/05/29 18:50:42;;;;;;;1.90;1.80;;;18.60;49.50;;;;;;10417235;28;20221;-77
2021/05/29 18:55:46;;;;;;;1.83;1.73;;;18.60;49.00;;;;;;10414113;28;20565;-77
2021/05/29 19:06:20;;;;;;;1.90;1.80;;;18.40;52.10;;;;;;10412496;28;20237;-77
2021/05/29 19:11:22;;;;;;;2.80;2.60;;;18.30;51.60;;;;;;10410455;28;20229;-77
2021/05/29 19:16:24;;;;;;;5.30;2.80;;;18.30;52.20;;;;;;10409829;28;20305;-77
2021/05/29 19:21:27;;;;;;;2.17;1.83;;;18.20;53.50;;;;;;10409811;28;20204;-78
2021/05/29 19:32:09;;;;;;;3.23;2.97;;;18.00;53.80;;;;;;10409132;28;20211;-77
2021/05/29 19:42:34;;;;;;;2.50;2.30;;;17.70;54.30;;;;;;10409137;28;20206;-77
2021/05/29 19:48:06;;;;;;;2.80;2.40;;;17.40;54.70;;;;;;10413151;28;20272;-77
2021/05/29 20:25:01;;;;;;;2.80;2.60;;;16.40;57.60;;;;;;10413295;28;20216;-78
2021/05/29 20:30:04;;;;;;;2.67;2.47;;;16.30;58.20;;;;;;10416924;28;20240;-79
2021/05/29 20:35:12;;;;;;;2.93;2.40;;;16.20;58.20;;;;;;10413982;28;20202;-78
2021/05/29 20:40:18;;;;;;;2.40;2.20;;;16.00;58.60;;;;;;10395605;28;20236;-78
2021/05/29 20:45:27;;;;;;;2.37;2.27;;;15.90;58.80;;;;;;10413475;28;20210;-78
2021/05/29 20:50:29;;;;;;;2.23;2.13;;;15.90;59.00;;;;;;10408481;28;20396;-77
2021/05/29 20:55:31;;;;;;;1.83;1.73;;;15.80;59.90;;;;;;10413008;28;20220;-78
2021/05/29 21:00:33;;;;;;;2.20;2.10;;;15.80;60.00;;;;;;10428268;28;20662;-78
2021/05/29 21:05:34;;;;;;;2.60;2.40;;;15.70;59.50;;;;;;10410550;28;20316;-78
2021/05/29 21:10:37;;;;;;;2.70;2.60;;;15.70;59.90;;;;;;10413596;28;20241;-79
2021/05/29 21:15:42;;;;;;;2.77;2.57;;;15.60;60.60;;;;;;10413007;28;20383;-79
2021/05/29 21:20:58;;;;;;;2.30;1.93;;;15.60;60.70;;;;;;10413321;28;20202;-79
2021/05/29 21:26:00;;;;;;;2.30;2.20;;;15.50;60.60;;;;;;10426115;28;20224;-79
2021/05/29 21:31:02;;;;;;;2.03;1.93;;;15.50;61.00;;;;;;10411844;28;20265;-78
2021/05/29 21:36:05;;;;;;;2.40;2.00;;;15.40;60.80;;;;;;10436662;28;20226;-78
2021/05/29 21:41:07;;;;;;;2.13;2.03;;;15.30;60.00;;;;;;10431362;28;20210;-77
2021/05/29 21:51:29;;;;;;;2.20;2.00;;;15.20;61.50;;;;;;10410349;28;20237;-79
2021/05/29 21:56:33;;;;;;;2.20;2.10;;;15.10;61.90;;;;;;10412993;28;20260;-79
2021/05/29 22:01:35;;;;;;;2.90;2.70;;;15.10;61.90;;;;;;10411088;28;20214;-79
2021/05/29 22:06:36;;;;;;;2.20;2.10;;;15.00;61.60;;;;;;10444211;22;20328;-82
2021/05/29 22:11:46;;;;;;;2.03;1.93;;;15.00;61.80;;;;;;10492678;28;20228;-82
2021/05/29 22:33:00;;;;;;;2.30;2.20;;;14.70;62.40;;;;;;10503302;28;20224;-82
2021/05/29 22:38:01;;;;;;;2.10;2.00;;;14.60;63.10;;;;;;10505638;28;20255;-81
2021/05/29 22:43:04;;;;;;;2.10;2.00;;;14.60;63.60;;;;;;10499930;28;20204;-81
2021/05/29 22:48:06;;;;;;;2.47;2.27;;;14.60;63.40;;;;;;10510118;28;20293;-81
2021/05/29 22:53:08;;;;;;;2.80;2.60;;;14.50;63.10;;;;;;10508628;28;20197;-81
2021/05/29 22:58:11;;;;;;;1.80;1.70;;;14.50;63.80;;;;;;10510788;28;20303;-81
2021/05/29 23:03:12;;;;;;;2.30;2.20;;;14.50;63.60;;;;;;10509314;28;20258;-81
2021/05/29 23:08:14;;;;;;;2.00;1.90;;;14.50;63.50;;;;;;10487707;28;20228;-81
2021/05/29 23:13:16;;;;;;;2.03;1.93;;;14.50;63.80;;;;;;10506692;28;20212;-81
2021/05/29 23:18:18;;;;;;;2.10;1.77;;;14.40;63.60;;;;;;10506493;28;20221;-81
2021/05/29 23:23:20;;;;;;;2.20;2.10;;;14.40;64.00;;;;;;10511771;28;20201;-81
2021/05/29 23:28:22;;;;;;;1.80;1.70;;;14.30;64.30;;;;;;10504182;28;20650;-81
2021/05/29 23:33:24;;;;;;;2.00;1.90;;;14.30;64.10;;;;;;10508442;28;20215;-81
2021/05/29 23:38:26;;;;;;;2.30;2.10;;;14.20;64.20;;;;;;10505599;28;20699;-81
2021/05/29 23:43:28;;;;;;;2.93;2.73;;;14.10;63.80;;;;;;10510536;28;20272;-81
2021/05/29 23:48:30;;;;;;;2.63;2.43;;;14.00;64.50;;;;;;10504013;28;20224;-81
2021/05/29 23:53:32;;;;;;;3.00;2.80;;;14.00;66.50;;;;;;10502060;28;20208;-81
2021/05/29 23:58:38;;;;;;;3.43;2.40;;;14.00;67.50;;;;;;10500561;28;20257;-81
